Time;durP1;ratioP1;P1;durP2;ratioP2;P2;SDS_P1;SDS_P2;PMS_P1;PMS_P2;Temp;Humidity;BMP_temperature;BMP_pressure;BME280_temperature;BME280_humidity;BME280_pressure;Samples;Min_cycle;Max_cycle;Signal;HPM_P1;HPM_P2
2022/07/28 00:00:44;;;;;;;3.05;0.70;;;23.10;63.90;;;;;;5034073;27;46428;-70
2022/07/28 00:03:11;;;;;;;1.20;0.63;;;23.10;64.10;;;;;;5037366;27;45598;-70
2022/07/28 00:05:38;;;;;;;0.60;0.60;;;23.10;63.80;;;;;;5037676;28;45518;-70
2022/07/28 00:08:05;;;;;;;0.73;0.50;;;23.10;64.00;;;;;;5036731;28;45401;-70
2022/07/28 00:10:32;;;;;;;0.80;0.47;;;23.10;64.00;;;;;;5035764;27;46753;-70
2022/07/28 00:12:59;;;;;;;0.88;0.60;;;23.10;64.00;;;;;;5035092;27;45443;-71
2022/07/28 00:15:26;;;;;;;1.60;0.60;;;23.10;64.00;;;;;;5033512;27;45350;-70
2022/07/28 00:17:54;;;;;;;0.80;0.63;;;23.10;63.90;;;;;;5036774;27;45500;-71
2022/07/28 00:20:21;;;;;;;0.93;0.55;;;23.10;63.90;;;;;;5031525;27;46580;-70
2022/07/28 00:22:48;;;;;;;0.73;0.50;;;23.10;63.90;;;;;;5036916;28;45474;-70
2022/07/28 00:25:15;;;;;;;0.40;0.40;;;23.10;63.90;;;;;;5035863;28;45669;-70
2022/07/28 00:27:42;;;;;;;1.77;0.65;;;23.10;64.10;;;;;;5046915;27;45645;-70
2022/07/28 00:30:09;;;;;;;1.58;0.80;;;23.10;64.10;;;;;;5035944;28;47547;-70
2022/07/28 00:32:36;;;;;;;0.63;0.45;;;23.10;64.00;;;;;;5035148;27;45383;-70
2022/07/28 00:35:05;;;;;;;1.40;0.63;;;23.10;64.00;;;;;;5036289;28;45388;-70
2022/07/28 00:37:32;;;;;;;0.82;0.40;;;23.10;64.10;;;;;;5035827;28;45291;-71
2022/07/28 00:39:59;;;;;;;0.63;0.40;;;23.10;64.00;;;;;;5033350;28;46419;-70
2022/07/28 00:42:25;;;;;;;0.98;0.57;;;23.10;64.10;;;;;;5029338;28;45479;-70
2022/07/28 00:44:52;;;;;;;0.82;0.45;;;23.10;64.00;;;;;;5029772;27;45609;-71
2022/07/28 00:47:19;;;;;;;0.63;0.43;;;23.10;64.00;;;;;;5031775;27;45378;-71
2022/07/28 00:49:47;;;;;;;0.80;0.60;;;23.10;64.10;;;;;;5036156;28;46162;-69
2022/07/28 00:52:16;;;;;;;1.27;0.63;;;23.10;64.30;;;;;;5034773;27;45708;-70
2022/07/28 00:54:44;;;;;;;0.55;0.38;;;23.10;64.90;;;;;;5039061;27;45371;-71
2022/07/28 00:57:11;;;;;;;1.30;0.50;;;23.10;65.40;;;;;;5034984;28;45476;-70
2022/07/28 00:59:37;;;;;;;1.23;0.63;;;23.10;65.90;;;;;;5037223;28;46039;-72
2022/07/28 01:02:05;;;;;;;1.50;0.60;;;23.10;65.50;;;;;;5031122;27;45468;-71
2022/07/28 01:04:32;;;;;;;3.40;0.82;;;23.10;65.20;;;;;;5046272;28;45239;-70
2022/07/28 01:07:10;;;;;;;1.65;0.50;;;23.10;65.10;;;;;;5039504;28;45350;-71
2022/07/28 01:09:45;;;;;;;0.85;0.60;;;23.10;64.90;;;;;;5033546;28;47452;-70
2022/07/28 01:12:26;;;;;;;0.60;0.50;;;23.10;64.70;;;;;;5038460;28;45799;-71
2022/07/28 01:15:03;;;;;;;0.60;0.60;;;23.10;64.60;;;;;;5034625;28;45373;-69
2022/07/28 01:17:37;;;;;;;0.65;0.55;;;23.10;64.60;;;;;;5038577;28;45470;-71
2022/07/28 01:20:09;;;;;;;2.55;0.57;;;23.10;64.60;;;;;;5038876;27;45410;-71
2022/07/28 01:22:41;;;;;;;1.63;0.68;;;23.10;64.50;;;;;;5030311;28;45402;-71
2022/07/28 01:25:20;;;;;;;0.68;0.50;;;23.10;64.60;;;;;;5039151;28;45316;-70
2022/07/28 01:28:05;;;;;;;0.93;0.50;;;23.10;64.50;;;;;;5035532;28;45486;-70
2022/07/28 01:30:38;;;;;;;0.68;0.35;;;23.10;64.50;;;;;;5024245;28;46615;-70
2022/07/28 01:33:12;;;;;;;1.65;0.65;;;23.10;64.50;;;;;;5039620;28;45850;-71
2022/07/28 01:35:45;;;;;;;0.93;0.60;;;23.10;64.50;;;;;;5039988;28;45411;-71
2022/07/28 01:38:14;;;;;;;1.38;0.55;;;23.10;64.40;;;;;;5036742;28;45341;-71
2022/07/28 01:40:44;;;;;;;1.95;0.60;;;23.10;64.40;;;;;;5039464;28;46034;-71
2022/07/28 01:43:16;;;;;;;1.42;0.57;;;23.10;64.50;;;;;;5038598;28;46913;-70
2022/07/28 01:45:46;;;;;;;0.93;0.50;;;23.10;64.60;;;;;;5036645;28;45308;-71
2022/07/28 01:48:16;;;;;;;1.73;0.50;;;23.10;64.70;;;;;;5039003;28;45339;-71
2022/07/28 01:50:46;;;;;;;1.60;0.50;;;23.10;64.60;;;;;;5036561;27;47073;-71
2022/07/28 01:53:15;;;;;;;1.65;0.47;;;23.10;64.70;;;;;;5037610;28;45483;-70
2022/07/28 01:55:43;;;;;;;1.13;0.70;;;23.10;64.80;;;;;;5039608;27;45515;-70
2022/07/28 01:58:11;;;;;;;0.75;0.40;;;23.10;65.90;;;;;;5038439;28;45270;-70
2022/07/28 02:00:39;;;;;;;1.08;0.63;;;23.10;64.80;;;;;;5038629;28;46427;-70
2022/07/28 02:03:09;;;;;;;0.73;0.60;;;23.10;64.70;;;;;;5031257;28;45382;-71
2022/07/28 02:05:38;;;;;;;1.83;0.40;;;23.10;64.70;;;;;;5021502;27;45592;-71
2022/07/28 02:08:06;;;;;;;0.77;0.50;;;23.10;64.80;;;;;;5033648;28;45419;-69
2022/07/28 02:10:34;;;;;;;0.70;0.47;;;23.10;64.70;;;;;;5038879;28;47095;-70
2022/07/28 02:13:02;;;;;;;0.65;0.50;;;23.10;64.70;;;;;;5039457;28;45340;-72
2022/07/28 02:15:30;;;;;;;0.55;0.45;;;23.10;64.30;;;;;;5038514;27;45248;-70
2022/07/28 02:17:59;;;;;;;0.73;0.35;;;23.00;63.90;;;;;;5037056;28;45422;-70
2022/07/28 02:20:27;;;;;;;1.63;0.40;;;23.10;63.90;;;;;;5035651;28;45456;-70
2022/07/28 02:22:56;;;;;;;1.48;0.40;;;23.10;63.90;;;;;;5039687;28;45568;-70
2022/07/28 02:25:23;;;;;;;0.40;0.40;;;23.10;63.70;;;;;;5029003;28;45223;-70
2022/07/28 02:27:54;;;;;;;1.25;0.60;;;23.00;63.70;;;;;;5038671;28;45271;-70
2022/07/28 02:30:29;;;;;;;1.00;0.50;;;23.10;63.80;;;;;;5029271;27;46414;-71
2022/07/28 02:32:59;;;;;;;0.40;0.30;;;23.10;63.50;;;;;;5037454;28;45571;-70
2022/07/28 02:35:32;;;;;;;0.65;0.40;;;23.10;63.50;;;;;;5038439;28;45202;-70
2022/07/28 02:38:09;;;;;;;0.45;0.43;;;23.10;63.50;;;;;;5038623;28;45201;-71
2022/07/28 02:40:38;;;;;;;0.70;0.50;;;23.10;63.40;;;;;;5032150;28;47268;-70
2022/07/28 02:43:11;;;;;;;0.80;0.52;;;23.00;63.50;;;;;;5029640;28;45477;-71
2022/07/28 02:45:41;;;;;;;0.73;0.47;;;23.10;63.40;;;;;;5032523;28;45458;-70
2022/07/28 02:48:11;;;;;;;0.95;0.50;;;23.00;63.40;;;;;;5037571;28;45379;-71
2022/07/28 02:50:42;;;;;;;0.98;0.50;;;23.00;63.40;;;;;;5035732;28;45306;-70
2022/07/28 02:53:09;;;;;;;0.40;0.40;;;23.00;63.10;;;;;;5037991;28;45328;-70
2022/07/28 02:55:38;;;;;;;0.43;0.43;;;23.00;63.30;;;;;;5038695;28;45431;-71
2022/07/28 02:58:07;;;;;;;0.70;0.30;;;23.00;63.30;;;;;;5037873;28;45645;-70
2022/07/28 03:00:35;;;;;;;0.75;0.40;;;23.00;63.30;;;;;;5031157;27;48646;-71
2022/07/28 03:03:03;;;;;;;0.50;0.30;;;23.00;63.20;;;;;;5037163;28;45402;-71
2022/07/28 03:05:31;;;;;;;0.93;0.43;;;23.00;63.10;;;;;;5038020;28;45333;-70
2022/07/28 03:07:59;;;;;;;1.15;0.40;;;23.00;63.30;;;;;;5030905;28;45489;-70
2022/07/28 03:10:28;;;;;;;0.95;0.47;;;23.00;63.60;;;;;;5035795;28;46031;-70
2022/07/28 03:12:55;;;;;;;0.73;0.52;;;23.00;64.80;;;;;;5038190;28;45261;-71
2022/07/28 03:15:22;;;;;;;0.90;0.50;;;23.00;63.60;;;;;;5036992;27;45529;-70
2022/07/28 03:17:49;;;;;;;0.40;0.40;;;23.00;63.60;;;;;;5037849;28;45482;-72
2022/07/28 03:20:16;;;;;;;0.68;0.40;;;23.00;63.40;;;;;;5037607;28;47067;-70
2022/07/28 03:22:43;;;;;;;0.70;0.50;;;23.00;63.20;;;;;;5038608;27;45402;-70
2022/07/28 03:25:17;;;;;;;0.82;0.60;;;23.00;63.50;;;;;;5037273;28;45437;-70
2022/07/28 03:27:49;;;;;;;0.50;0.50;;;23.00;63.30;;;;;;5037628;28;45403;-71
2022/07/28 03:30:19;;;;;;;1.33;0.50;;;23.00;63.30;;;;;;5032855;27;46603;-71
2022/07/28 03:32:50;;;;;;;0.52;0.30;;;23.00;63.10;;;;;;5035704;27;45768;-70
2022/07/28 03:35:17;;;;;;;1.45;0.35;;;23.00;63.10;;;;;;5037125;27;45330;-70
2022/07/28 03:37:50;;;;;;;1.48;0.52;;;23.00;63.30;;;;;;5038244;28;45465;-70
2022/07/28 03:40:20;;;;;;;2.17;0.60;;;23.00;63.10;;;;;;5037177;28;46311;-70
2022/07/28 03:42:49;;;;;;;0.93;0.40;;;23.00;63.50;;;;;;5042675;28;45514;-70
2022/07/28 03:45:17;;;;;;;0.80;0.50;;;23.00;63.20;;;;;;5039332;28;45485;-70
2022/07/28 03:47:51;;;;;;;1.40;0.50;;;23.00;63.70;;;;;;5037941;28;45399;-71
2022/07/28 03:50:21;;;;;;;0.70;0.40;;;23.00;63.30;;;;;;5036734;28;45710;-70
2022/07/28 03:52:48;;;;;;;0.60;0.40;;;23.00;63.00;;;;;;5038357;27;45283;-71
2022/07/28 03:55:15;;;;;;;0.90;0.60;;;23.00;63.30;;;;;;5036348;28;45415;-70
2022/07/28 03:57:43;;;;;;;0.50;0.30;;;23.00;63.20;;;;;;5037435;27;45362;-70
2022/07/28 04:00:11;;;;;;;0.55;0.40;;;23.00;63.10;;;;;;5036650;28;46091;-70
2022/07/28 04:02:42;;;;;;;1.23;0.50;;;23.00;62.90;;;;;;5036136;28;45390;-71
2022/07/28 04:05:10;;;;;;;0.93;0.47;;;23.00;63.20;;;;;;5037031;28;45401;-70
2022/07/28 04:07:37;;;;;;;0.77;0.50;;;23.00;63.10;;;;;;5036919;28;45432;-71
2022/07/28 04:10:05;;;;;;;1.95;0.73;;;23.00;62.90;;;;;;5036941;28;46945;-72
2022/07/28 04:12:31;;;;;;;1.23;0.60;;;23.00;63.00;;;;;;5034710;27;45773;-70
2022/07/28 04:15:00;;;;;;;0.60;0.50;;;23.00;63.20;;;;;;5042256;27;45608;-71
2022/07/28 04:17:26;;;;;;;1.30;0.50;;;23.00;62.90;;;;;;5037611;28;45283;-71
2022/07/28 04:19:53;;;;;;;2.22;0.40;;;23.00;63.10;;;;;;5037021;27;47176;-71
2022/07/28 04:22:20;;;;;;;0.60;0.50;;;23.00;63.00;;;;;;5039720;27;45457;-71
2022/07/28 04:24:47;;;;;;;0.40;0.40;;;23.00;63.20;;;;;;5038513;28;45206;-71
2022/07/28 04:27:14;;;;;;;0.90;0.60;;;23.00;63.10;;;;;;5037856;28;45578;-71
2022/07/28 04:29:41;;;;;;;0.38;0.38;;;23.00;63.20;;;;;;5039266;28;46888;-71
2022/07/28 04:32:09;;;;;;;1.27;0.50;;;23.00;63.40;;;;;;5039905;28;45383;-71
2022/07/28 04:34:36;;;;;;;1.40;0.57;;;23.00;63.00;;;;;;5038006;28;45331;-71
2022/07/28 04:37:03;;;;;;;0.50;0.43;;;23.00;63.00;;;;;;5039724;28;45483;-71
2022/07/28 04:39:30;;;;;;;1.23;0.40;;;23.00;62.80;;;;;;5037728;28;48451;-70
2022/07/28 04:41:57;;;;;;;1.67;0.47;;;23.00;62.70;;;;;;5038613;27;45297;-70
2022/07/28 04:44:24;;;;;;;2.42;0.65;;;23.00;62.90;;;;;;5038503;28;45262;-71
2022/07/28 04:46:50;;;;;;;1.98;0.50;;;23.00;63.20;;;;;;5040123;27;45420;-70
2022/07/28 04:49:19;;;;;;;1.95;0.70;;;22.90;62.90;;;;;;5047561;28;46611;-70
2022/07/28 04:51:49;;;;;;;0.75;0.50;;;23.00;62.90;;;;;;5040414;28;45479;-70
2022/07/28 04:54:16;;;;;;;0.77;0.50;;;22.90;63.00;;;;;;5048441;28;45441;-71
2022/07/28 04:56:43;;;;;;;0.85;0.50;;;23.00;62.60;;;;;;5040581;28;45502;-69
2022/07/28 04:59:09;;;;;;;0.95;0.50;;;23.00;62.50;;;;;;5038497;28;45524;-71
2022/07/28 05:01:37;;;;;;;0.95;0.50;;;22.90;62.60;;;;;;5037984;28;45307;-69
2022/07/28 05:04:05;;;;;;;2.47;0.50;;;22.90;62.80;;;;;;5039984;27;45378;-71
2022/07/28 05:06:35;;;;;;;1.75;0.60;;;23.00;62.80;;;;;;5032908;27;45205;-71
2022/07/28 05:09:02;;;;;;;0.70;0.52;;;22.90;62.90;;;;;;5038406;28;47111;-72
2022/07/28 05:11:29;;;;;;;0.80;0.47;;;22.90;63.80;;;;;;5038064;28;45266;-71
2022/07/28 05:13:56;;;;;;;0.60;0.55;;;22.90;62.60;;;;;;5040603;27;45542;-71
2022/07/28 05:16:23;;;;;;;2.42;0.68;;;22.90;62.40;;;;;;5039382;28;45253;-71
2022/07/28 05:18:50;;;;;;;0.85;0.47;;;22.90;62.30;;;;;;5039336;27;46567;-70
2022/07/28 05:21:16;;;;;;;0.90;0.50;;;22.90;62.40;;;;;;5038809;28;45277;-71
2022/07/28 05:23:44;;;;;;;2.83;0.50;;;22.90;62.70;;;;;;5039630;28;45281;-70
2022/07/28 05:26:13;;;;;;;0.85;0.60;;;22.90;62.60;;;;;;5039227;28;45440;-70
2022/07/28 05:28:40;;;;;;;0.95;0.60;;;22.90;62.80;;;;;;5037162;28;48955;-70
2022/07/28 05:31:07;;;;;;;0.90;0.47;;;22.90;62.60;;;;;;5050886;27;45498;-70
2022/07/28 05:33:34;;;;;;;1.13;0.50;;;22.90;62.80;;;;;;5041423;28;45396;-70
2022/07/28 05:36:02;;;;;;;0.50;0.50;;;22.90;62.60;;;;;;5039682;28;45777;-72
2022/07/28 05:38:30;;;;;;;0.52;0.50;;;22.90;63.00;;;;;;5037713;28;48138;-70
2022/07/28 05:40:58;;;;;;;1.23;0.65;;;22.90;62.80;;;;;;5040075;27;45733;-70
2022/07/28 05:43:26;;;;;;;1.50;0.52;;;22.90;63.10;;;;;;5038756;28;45355;-71
2022/07/28 05:45:52;;;;;;;1.13;0.55;;;22.90;63.10;;;;;;5039845;28;45573;-71
2022/07/28 05:48:20;;;;;;;1.30;0.60;;;22.90;62.90;;;;;;5037419;28;46110;-71
2022/07/28 05:50:47;;;;;;;1.25;0.63;;;22.90;62.90;;;;;;5039617;27;45944;-71
2022/07/28 05:53:15;;;;;;;1.30;0.47;;;22.90;62.90;;;;;;5038805;28;45403;-71
2022/07/28 05:55:42;;;;;;;1.17;0.70;;;22.90;62.90;;;;;;5036326;28;45518;-70
2022/07/28 05:58:10;;;;;;;0.90;0.50;;;22.90;62.90;;;;;;5033555;28;45521;-70
2022/07/28 06:00:36;;;;;;;0.43;0.40;;;22.90;62.90;;;;;;5039334;28;45330;-72
2022/07/28 06:03:04;;;;;;;1.42;0.57;;;22.90;62.90;;;;;;5037464;28;45380;-71
2022/07/28 06:05:32;;;;;;;1.38;0.50;;;23.00;63.00;;;;;;5032149;28;45248;-70
2022/07/28 06:07:59;;;;;;;0.98;0.50;;;23.00;63.30;;;;;;5036673;28;45655;-71
2022/07/28 06:10:57;;;;;;;0.95;0.55;;;22.90;63.10;;;;;;5039166;28;45297;-71
2022/07/28 06:13:15;;;;;;;1.48;0.55;;;23.00;63.20;;;;;;5036308;28;45581;-70
2022/07/28 06:15:43;;;;;;;1.20;0.68;;;23.00;63.50;;;;;;5034877;28;45537;-70
2022/07/28 06:18:09;;;;;;;1.13;0.55;;;22.90;62.80;;;;;;5035632;28;47839;-70
2022/07/28 06:20:37;;;;;;;1.38;0.60;;;23.00;63.10;;;;;;5039148;28;45362;-70
2022/07/28 06:23:04;;;;;;;0.80;0.50;;;22.90;63.10;;;;;;5039110;28;45371;-70
2022/07/28 06:25:31;;;;;;;1.00;0.60;;;22.90;63.20;;;;;;5033544;28;45349;-70
2022/07/28 06:28:01;;;;;;;1.13;0.60;;;23.00;63.40;;;;;;5038426;28;48073;-71
2022/07/28 06:30:30;;;;;;;0.55;0.52;;;23.00;63.40;;;;;;5038806;28;45393;-70
2022/07/28 06:32:57;;;;;;;0.95;0.70;;;23.00;63.30;;;;;;5039640;27;45509;-70
2022/07/28 06:35:24;;;;;;;1.15;0.55;;;23.00;63.30;;;;;;5036601;28;45450;-71
2022/07/28 06:37:52;;;;;;;1.52;0.68;;;23.00;63.70;;;;;;5036938;28;46398;-70
2022/07/28 06:40:20;;;;;;;1.13;0.47;;;23.00;63.30;;;;;;5066195;27;45432;-69
2022/07/28 06:42:49;;;;;;;3.67;0.63;;;22.90;63.20;;;;;;5038966;28;45335;-70
2022/07/28 06:45:16;;;;;;;0.75;0.68;;;23.00;63.30;;;;;;5037678;28;45708;-70
2022/07/28 06:47:44;;;;;;;1.10;0.55;;;23.00;63.20;;;;;;5037447;28;47542;-70
2022/07/28 06:50:11;;;;;;;2.13;0.50;;;23.00;62.80;;;;;;5036832;28;46137;-71
2022/07/28 06:52:39;;;;;;;3.22;0.80;;;23.00;62.80;;;;;;5036624;27;45498;-70
2022/07/28 06:55:06;;;;;;;1.02;0.55;;;23.00;62.70;;;;;;5038326;28;45535;-71
2022/07/28 06:57:33;;;;;;;1.83;0.70;;;23.00;62.70;;;;;;5037044;28;45474;-70
2022/07/28 07:00:02;;;;;;;1.42;0.70;;;23.00;62.70;;;;;;5037432;28;45271;-70
2022/07/28 07:02:29;;;;;;;1.15;0.60;;;23.00;62.90;;;;;;5035558;27;45484;-70
2022/07/28 07:04:57;;;;;;;1.40;0.65;;;23.00;62.80;;;;;;5038844;27;45600;-71
2022/07/28 07:07:25;;;;;;;2.70;0.95;;;23.00;62.80;;;;;;5036910;28;47093;-71
2022/07/28 07:09:51;;;;;;;1.92;0.90;;;23.00;62.90;;;;;;5032381;27;45516;-70
2022/07/28 07:12:18;;;;;;;1.30;0.80;;;23.00;62.90;;;;;;5035557;28;45422;-71
2022/07/28 07:14:45;;;;;;;0.60;0.50;;;23.00;62.60;;;;;;5040420;28;45438;-70
2022/07/28 07:17:12;;;;;;;3.58;0.90;;;23.00;62.50;;;;;;5039717;28;47461;-71
2022/07/28 07:19:38;;;;;;;2.50;0.70;;;23.00;62.80;;;;;;5039321;27;45731;-71
2022/07/28 07:22:07;;;;;;;0.40;0.40;;;22.90;62.40;;;;;;5040263;28;45343;-70
2022/07/28 07:24:34;;;;;;;1.33;0.50;;;22.90;62.10;;;;;;5039704;28;45569;-71
2022/07/28 07:27:01;;;;;;;0.95;0.60;;;22.90;62.10;;;;;;5039610;28;47474;-71
2022/07/28 07:29:27;;;;;;;2.38;0.80;;;22.90;62.10;;;;;;5039651;27;45432;-71
2022/07/28 07:31:57;;;;;;;2.05;0.50;;;22.90;62.10;;;;;;5039902;28;45476;-71
2022/07/28 07:34:24;;;;;;;2.83;0.75;;;22.90;61.90;;;;;;5038227;28;45251;-70
2022/07/28 07:36:50;;;;;;;1.27;0.70;;;22.90;61.90;;;;;;5038420;28;46103;-71
2022/07/28 07:39:18;;;;;;;1.67;0.80;;;23.00;62.00;;;;;;5027668;28;45289;-70
2022/07/28 07:41:45;;;;;;;1.05;0.55;;;22.90;61.70;;;;;;5035171;28;45390;-71
2022/07/28 07:44:12;;;;;;;2.88;0.70;;;22.90;61.80;;;;;;5025596;28;45242;-70
2022/07/28 07:46:39;;;;;;;2.30;1.02;;;23.00;61.90;;;;;;5019874;28;46103;-71
2022/07/28 07:49:06;;;;;;;2.45;0.60;;;23.00;62.00;;;;;;5034821;28;45471;-72
2022/07/28 07:51:32;;;;;;;1.75;0.68;;;23.00;61.90;;;;;;5039957;28;45317;-71
2022/07/28 07:53:59;;;;;;;0.95;0.70;;;23.00;62.10;;;;;;5038802;28;45727;-71
2022/07/28 07:56:27;;;;;;;1.48;0.60;;;23.00;62.10;;;;;;5021959;28;47101;-71
2022/07/28 07:58:55;;;;;;;1.67;0.93;;;23.00;62.00;;;;;;5023634;28;45507;-71
2022/07/28 08:01:21;;;;;;;1.63;0.70;;;23.00;62.10;;;;;;5027770;28;45343;-71
2022/07/28 08:03:50;;;;;;;2.15;0.68;;;23.00;62.10;;;;;;5019780;28;45398;-70
2022/07/28 08:06:16;;;;;;;2.55;0.75;;;23.00;62.00;;;;;;5032616;28;45459;-71
2022/07/28 08:08:43;;;;;;;1.17;0.50;;;23.00;62.00;;;;;;5037294;28;45262;-70
2022/07/28 08:11:11;;;;;;;3.10;0.93;;;23.00;62.10;;;;;;5035031;27;45528;-71
2022/07/28 08:13:39;;;;;;;1.08;0.60;;;23.00;62.10;;;;;;5033202;28;45395;-71
2022/07/28 08:16:06;;;;;;;2.80;0.80;;;23.00;62.10;;;;;;5029181;28;46988;-71
2022/07/28 08:18:33;;;;;;;1.40;0.60;;;23.00;62.00;;;;;;5033570;28;45377;-70
2022/07/28 08:21:00;;;;;;;2.10;0.77;;;23.00;62.00;;;;;;5034975;28;45285;-71
2022/07/28 08:23:27;;;;;;;0.70;0.52;;;23.00;61.90;;;;;;5038630;27;45573;-71
2022/07/28 08:25:54;;;;;;;1.90;0.77;;;23.00;62.90;;;;;;5039093;27;47359;-71
2022/07/28 08:28:21;;;;;;;1.75;0.70;;;23.00;61.90;;;;;;5033422;28;45222;-71
2022/07/28 08:30:49;;;;;;;2.65;0.90;;;23.00;61.60;;;;;;5035558;28;45471;-71
2022/07/28 08:33:20;;;;;;;1.15;0.60;;;23.00;61.60;;;;;;5041747;27;45459;-71
2022/07/28 08:35:47;;;;;;;1.05;0.50;;;23.00;61.60;;;;;;5060587;27;48070;-70
2022/07/28 08:38:15;;;;;;;2.42;0.65;;;23.00;61.40;;;;;;5031862;28;45652;-71
2022/07/28 08:40:42;;;;;;;1.52;0.68;;;23.10;61.60;;;;;;5029157;27;45454;-72
2022/07/28 08:43:19;;;;;;;2.22;0.55;;;23.10;61.50;;;;;;5029897;27;45346;-70
2022/07/28 08:45:51;;;;;;;4.00;1.00;;;23.10;61.50;;;;;;5054837;27;46083;-71
2022/07/28 08:48:21;;;;;;;1.50;0.70;;;23.10;61.40;;;;;;5023009;27;45361;-71
2022/07/28 08:50:49;;;;;;;1.00;0.40;;;23.10;61.50;;;;;;5046468;27;45308;-71
2022/07/28 08:53:18;;;;;;;1.80;0.63;;;23.10;61.40;;;;;;5044225;28;45550;-70
2022/07/28 08:55:45;;;;;;;1.25;0.70;;;23.10;61.40;;;;;;5032295;28;48059;-70
2022/07/28 08:58:13;;;;;;;1.20;0.60;;;23.10;61.50;;;;;;5069703;27;45597;-72
2022/07/28 09:00:41;;;;;;;2.28;0.63;;;23.10;61.40;;;;;;5033515;27;45413;-71
2022/07/28 09:03:12;;;;;;;0.90;0.68;;;23.10;61.20;;;;;;5029444;28;45495;-73
2022/07/28 09:05:41;;;;;;;1.58;0.57;;;23.10;61.20;;;;;;5030253;27;46516;-71
2022/07/28 09:08:09;;;;;;;2.47;0.90;;;23.10;61.20;;;;;;5034167;27;45740;-71
2022/07/28 09:10:36;;;;;;;1.95;0.82;;;23.10;61.40;;;;;;5038668;28;45550;-70
2022/07/28 09:13:03;;;;;;;0.82;0.60;;;23.10;61.40;;;;;;5051634;28;45199;-71
2022/07/28 09:15:31;;;;;;;0.77;0.60;;;23.10;61.50;;;;;;5060661;28;48108;-71
2022/07/28 09:17:58;;;;;;;0.98;0.70;;;23.10;61.80;;;;;;5061038;28;45291;-70
2022/07/28 09:20:27;;;;;;;1.02;0.50;;;23.10;62.00;;;;;;5060643;28;45373;-70
2022/07/28 09:22:56;;;;;;;1.63;0.70;;;23.10;62.00;;;;;;5060819;28;45381;-70
2022/07/28 09:25:23;;;;;;;1.83;0.70;;;23.10;62.00;;;;;;5061002;28;47407;-71
2022/07/28 09:27:50;;;;;;;2.58;0.70;;;23.10;62.10;;;;;;5061454;28;45488;-71
2022/07/28 09:30:28;;;;;;;1.48;0.73;;;23.10;62.10;;;;;;5061831;28;45338;-70
2022/07/28 09:33:17;;;;;;;2.83;0.43;;;23.10;61.90;;;;;;5061956;28;45584;-70
2022/07/28 09:35:47;;;;;;;0.90;0.57;;;23.10;62.10;;;;;;5061819;28;45365;-71
2022/07/28 09:38:14;;;;;;;1.25;0.73;;;23.10;62.00;;;;;;5061322;28;45379;-70
2022/07/28 09:40:41;;;;;;;0.50;0.50;;;23.10;63.10;;;;;;5061923;28;45306;-71
2022/07/28 09:43:10;;;;;;;0.63;0.50;;;23.10;62.10;;;;;;5061383;28;45504;-72
2022/07/28 09:45:37;;;;;;;1.33;0.60;;;23.10;62.20;;;;;;5061372;28;48352;-71
2022/07/28 09:48:12;;;;;;;0.50;0.40;;;23.10;62.10;;;;;;5060817;28;45258;-72
2022/07/28 09:50:39;;;;;;;1.60;0.60;;;23.10;62.20;;;;;;5061884;28;45252;-71
2022/07/28 09:53:25;;;;;;;0.45;0.40;;;23.10;62.50;;;;;;5061561;28;45544;-71
2022/07/28 09:55:55;;;;;;;0.55;0.47;;;23.10;62.20;;;;;;5061308;28;46263;-71
2022/07/28 09:58:22;;;;;;;0.63;0.60;;;23.10;62.50;;;;;;5061187;27;45680;-71
2022/07/28 10:00:49;;;;;;;1.52;0.52;;;23.10;62.30;;;;;;5053079;28;45365;-71
2022/07/28 10:03:24;;;;;;;1.77;0.52;;;23.10;62.40;;;;;;5039875;27;45508;-71
2022/07/28 10:05:51;;;;;;;1.92;0.70;;;23.10;62.60;;;;;;5048099;27;48309;-70
2022/07/28 10:08:18;;;;;;;3.42;0.50;;;23.10;62.60;;;;;;5035337;27;45411;-71
2022/07/28 10:10:59;;;;;;;0.50;0.40;;;23.10;62.60;;;;;;5036697;27;45355;-71
2022/07/28 10:13:26;;;;;;;1.00;0.52;;;23.10;63.00;;;;;;5035165;28;45403;-70
2022/07/28 10:16:11;;;;;;;0.75;0.38;;;23.10;62.90;;;;;;5051863;27;46035;-71
2022/07/28 10:18:39;;;;;;;2.97;0.68;;;23.10;62.80;;;;;;5053750;27;45457;-70
2022/07/28 10:21:09;;;;;;;0.98;0.60;;;23.10;62.80;;;;;;5049801;27;45563;-71
2022/07/28 10:23:38;;;;;;;0.85;0.50;;;23.10;62.80;;;;;;5075965;27;45287;-71
2022/07/28 10:26:10;;;;;;;1.75;0.70;;;23.20;62.90;;;;;;5072886;27;46581;-71
2022/07/28 10:28:48;;;;;;;2.95;0.70;;;23.10;62.60;;;;;;5028568;28;45428;-71
2022/07/28 10:31:25;;;;;;;0.77;0.60;;;23.20;62.70;;;;;;5026498;28;45315;-71
2022/07/28 10:33:55;;;;;;;0.80;0.52;;;23.20;62.70;;;;;;5032603;28;45339;-71
2022/07/28 10:36:24;;;;;;;0.88;0.55;;;23.20;62.70;;;;;;5029435;28;45253;-70
2022/07/28 10:38:58;;;;;;;1.40;0.52;;;23.10;62.60;;;;;;5030144;28;45780;-71
2022/07/28 10:41:29;;;;;;;1.00;0.60;;;23.20;62.60;;;;;;5035052;28;45328;-71
2022/07/28 10:43:56;;;;;;;1.13;0.70;;;23.20;62.60;;;;;;5039961;28;45315;-68
2022/07/28 10:46:24;;;;;;;1.83;0.50;;;23.20;62.50;;;;;;5053037;27;47160;-71
2022/07/28 10:48:51;;;;;;;1.73;0.50;;;23.20;62.80;;;;;;5036949;28;45481;-72
2022/07/28 10:51:20;;;;;;;1.05;0.60;;;23.20;62.80;;;;;;5033219;28;45459;-70
2022/07/28 10:53:52;;;;;;;1.25;0.60;;;23.20;62.80;;;;;;5033342;28;45311;-70
2022/07/28 10:56:24;;;;;;;1.13;0.73;;;23.20;62.80;;;;;;5035239;27;46599;-71
2022/07/28 10:59:00;;;;;;;3.08;0.60;;;23.20;62.90;;;;;;5029666;27;45356;-72
2022/07/28 11:01:35;;;;;;;1.48;0.60;;;23.20;62.80;;;;;;5034221;28;45336;-71
2022/07/28 11:04:02;;;;;;;0.50;0.50;;;23.20;63.00;;;;;;5033272;27;45372;-71
2022/07/28 11:06:32;;;;;;;1.55;0.65;;;23.20;64.00;;;;;;5038038;28;46594;-70
2022/07/28 11:09:00;;;;;;;1.02;0.60;;;23.20;63.00;;;;;;5034333;27;45407;-72
2022/07/28 11:11:43;;;;;;;1.35;0.60;;;23.20;63.00;;;;;;5037247;27;45438;-70
2022/07/28 11:14:32;;;;;;;1.55;0.50;;;23.20;62.90;;;;;;5037059;28;45468;-71
2022/07/28 11:17:19;;;;;;;1.25;0.65;;;23.20;63.10;;;;;;5033734;28;48577;-70
2022/07/28 11:19:56;;;;;;;0.68;0.40;;;23.20;62.90;;;;;;5031114;28;45534;-71
2022/07/28 11:22:28;;;;;;;2.25;0.57;;;23.20;62.90;;;;;;5032112;27;45523;-70
2022/07/28 11:25:19;;;;;;;2.40;0.60;;;23.20;63.00;;;;;;5033556;27;45400;-70
2022/07/28 11:28:03;;;;;;;1.15;0.65;;;23.20;63.00;;;;;;5013241;27;47255;-71
2022/07/28 11:30:54;;;;;;;0.88;0.43;;;23.20;63.20;;;;;;5032514;27;45476;-71
2022/07/28 11:33:23;;;;;;;0.40;0.40;;;23.20;63.10;;;;;;5035537;27;45521;-69
2022/07/28 11:35:58;;;;;;;1.52;0.73;;;23.20;63.20;;;;;;5035148;27;45309;-71
2022/07/28 11:38:25;;;;;;;0.45;0.45;;;23.20;63.20;;;;;;5032478;28;46713;-70
2022/07/28 11:40:54;;;;;;;0.90;0.50;;;23.20;63.20;;;;;;5037363;27;45509;-70
2022/07/28 11:43:32;;;;;;;1.33;0.57;;;23.20;63.20;;;;;;5045344;27;45377;-71
2022/07/28 11:46:36;;;;;;;1.30;0.60;;;23.20;63.10;;;;;;5036623;28;45421;-71
2022/07/28 11:49:22;;;;;;;0.80;0.60;;;23.20;63.00;;;;;;5030726;28;46291;-71
2022/07/28 11:52:11;;;;;;;0.85;0.50;;;23.20;62.90;;;;;;5037582;27;45354;-70
2022/07/28 11:54:39;;;;;;;1.23;0.60;;;23.20;63.10;;;;;;5037884;28;45240;-70
2022/07/28 11:57:08;;;;;;;1.08;0.60;;;23.20;63.20;;;;;;5037260;28;45227;-71
2022/07/28 11:59:43;;;;;;;2.33;0.65;;;23.20;63.10;;;;;;5037428;27;45321;-71
2022/07/28 12:02:15;;;;;;;1.65;0.60;;;23.20;63.10;;;;;;5036634;27;45321;-70
2022/07/28 12:04:42;;;;;;;1.17;0.68;;;23.20;63.10;;;;;;5036876;28;45322;-71
2022/07/28 12:07:10;;;;;;;0.65;0.50;;;23.20;63.20;;;;;;5036328;28;45447;-71
2022/07/28 12:09:38;;;;;;;0.70;0.40;;;23.20;63.30;;;;;;5037013;27;47288;-71
2022/07/28 12:12:07;;;;;;;1.40;0.47;;;23.20;63.30;;;;;;5038951;27;45505;-70
2022/07/28 12:14:39;;;;;;;2.08;0.75;;;23.20;63.20;;;;;;5036028;27;45523;-71
2022/07/28 12:17:06;;;;;;;0.75;0.47;;;23.20;63.20;;;;;;5029137;27;45380;-71
2022/07/28 12:19:34;;;;;;;1.15;0.60;;;23.20;63.20;;;;;;5022673;27;47177;-70
2022/07/28 12:22:01;;;;;;;0.75;0.40;;;23.20;63.50;;;;;;5041049;28;46135;-71
2022/07/28 12:24:29;;;;;;;3.17;0.50;;;23.20;63.30;;;;;;5035470;27;45332;-71
2022/07/28 12:26:58;;;;;;;1.02;0.70;;;23.20;63.50;;;;;;5030819;27;45429;-71
2022/07/28 12:29:30;;;;;;;0.68;0.45;;;23.20;63.40;;;;;;5027595;28;45607;-70
2022/07/28 12:31:58;;;;;;;1.15;0.63;;;23.20;63.30;;;;;;5063785;27;45461;-71
2022/07/28 12:34:26;;;;;;;0.68;0.55;;;23.20;63.40;;;;;;5026690;27;45450;-71
2022/07/28 12:36:55;;;;;;;1.17;0.70;;;23.20;63.30;;;;;;5029120;28;45271;-70
2022/07/28 12:39:24;;;;;;;0.60;0.50;;;23.20;63.30;;;;;;5036024;28;47365;-71
2022/07/28 12:42:00;;;;;;;1.33;0.60;;;23.20;63.40;;;;;;5033542;28;46266;-70
2022/07/28 12:44:33;;;;;;;0.68;0.50;;;23.20;63.20;;;;;;5032097;27;45464;-71
2022/07/28 12:47:01;;;;;;;1.55;0.43;;;23.20;63.20;;;;;;5034858;28;45561;-71
2022/07/28 12:49:27;;;;;;;0.50;0.40;;;23.20;63.30;;;;;;5038191;28;46274;-70
2022/07/28 12:51:57;;;;;;;0.65;0.60;;;23.20;63.30;;;;;;5043496;27;45431;-67
2022/07/28 12:54:35;;;;;;;2.28;0.70;;;23.20;63.30;;;;;;5047508;28;45361;-67
2022/07/28 12:57:02;;;;;;;2.22;0.73;;;23.20;64.50;;;;;;5039781;28;45569;-70
2022/07/28 12:59:33;;;;;;;3.45;0.40;;;23.20;64.20;;;;;;5027345;28;46624;-70